createdAt,value
2018-04-30T09:16:36.091Z,994.48
2018-04-30T09:17:36.089Z,994.46
2018-04-30T09:18:36.091Z,994.46
2018-04-30T09:19:36.099Z,994.46
2018-04-30T09:20:36.094Z,994.47
2018-04-30T09:21:36.096Z,994.52
2018-04-30T09:22:36.097Z,994.62
2018-04-30T09:23:36.101Z,994.52
2018-04-30T09:24:36.102Z,994.72
2018-04-30T09:25:36.104Z,994.72
2018-04-30T09:26:36.104Z,994.66
2018-04-30T09:27:36.116Z,994.69
2018-04-30T09:28:36.116Z,994.68
2018-04-30T09:29:36.108Z,994.70
2018-04-30T09:30:36.117Z,994.70
2018-04-30T09:31:36.119Z,994.80
2018-04-30T09:32:36.117Z,994.97
2018-04-30T09:33:36.125Z,994.96
2018-04-30T09:34:36.118Z,994.94
2018-04-30T09:35:36.121Z,994.73
2018-04-30T09:36:36.123Z,994.62
2018-04-30T09:37:36.125Z,994.72
2018-04-30T09:38:36.128Z,994.73
2018-04-30T09:39:36.130Z,995.11
2018-04-30T09:40:36.131Z,995.14
2018-04-30T09:41:36.135Z,995.21
2018-04-30T09:42:36.142Z,995.22
2018-04-30T09:43:36.140Z,995.15
2018-04-30T09:44:36.144Z,995.22
2018-04-30T09:45:36.145Z,995.26
2018-04-30T09:46:36.150Z,995.25
2018-04-30T09:47:36.170Z,995.55
2018-04-30T09:48:36.163Z,995.44
2018-04-30T09:49:36.154Z,995.49
2018-04-30T09:50:36.160Z,995.40
2018-04-30T09:51:36.161Z,995.54
2018-04-30T09:52:36.163Z,995.65
2018-04-30T09:53:36.165Z,995.80
2018-04-30T09:54:36.173Z,995.61
2018-04-30T09:55:36.188Z,995.53
2018-04-30T09:56:36.176Z,995.80
2018-04-30T09:57:36.184Z,995.73
2018-04-30T09:58:36.177Z,995.76
2018-04-30T09:59:36.192Z,995.97
2018-04-30T10:00:36.189Z,995.95
2018-04-30T10:01:36.189Z,996.02
2018-04-30T10:02:36.190Z,996.06
2018-04-30T10:03:36.191Z,996.17
2018-04-30T10:04:36.199Z,996.20
2018-04-30T10:05:36.196Z,996.08
2018-04-30T10:06:36.199Z,996.23
2018-04-30T10:07:36.204Z,996.26
2018-04-30T10:08:36.206Z,996.37
2018-04-30T10:09:36.211Z,996.37
2018-04-30T10:10:36.212Z,996.47
2018-04-30T10:11:36.214Z,995.51
2018-04-30T10:12:36.220Z,996.99
2018-04-30T10:13:36.219Z,997.18
2018-04-30T10:14:36.232Z,997.35
2018-04-30T10:15:36.225Z,997.53
2018-04-30T10:16:36.227Z,995.68
2018-04-30T10:17:36.235Z,995.79
2018-04-30T10:18:36.232Z,995.17
2018-04-30T10:19:36.238Z,997.48
2018-04-30T10:20:36.237Z,996.85
2018-04-30T10:21:36.239Z,997.43
2018-04-30T10:22:36.241Z,997.39
2018-04-30T10:23:36.409Z,997.42
2018-04-30T10:24:36.245Z,997.01
2018-04-30T10:25:36.248Z,995.51
2018-04-30T10:26:36.252Z,997.73
2018-04-30T10:27:36.253Z,997.53
2018-04-30T10:28:36.340Z,995.56
2018-04-30T10:29:36.259Z,996.23
2018-04-30T10:30:36.260Z,996.15
2018-04-30T10:31:36.289Z,995.61
2018-04-30T10:32:36.268Z,995.73
2018-04-30T10:33:36.264Z,995.53
2018-04-30T10:34:36.266Z,995.55
2018-04-30T10:35:36.272Z,995.62
2018-04-30T10:36:36.273Z,995.78
2018-04-30T10:37:36.273Z,995.67
2018-04-30T10:38:36.275Z,995.68
2018-04-30T10:39:36.274Z,995.94
2018-04-30T10:40:36.295Z,995.83
2018-04-30T10:41:36.271Z,996.11
2018-04-30T10:42:36.278Z,995.93
2018-04-30T10:43:36.272Z,995.89
2018-04-30T10:44:36.281Z,996.03
2018-04-30T10:45:36.272Z,996.20
2018-04-30T10:46:36.272Z,996.44
2018-04-30T10:47:36.274Z,996.51
2018-04-30T10:48:36.272Z,996.56
2018-04-30T10:49:36.269Z,996.64
2018-04-30T10:50:36.272Z,997.92
2018-04-30T10:51:36.303Z,997.59
2018-04-30T10:52:36.270Z,997.13
2018-04-30T10:53:36.358Z,996.58
2018-04-30T10:54:36.266Z,996.46
2018-04-30T10:55:36.268Z,997.35
2018-04-30T10:56:36.267Z,996.57
2018-04-30T10:57:36.264Z,996.50
2018-04-30T10:58:36.270Z,996.52
2018-04-30T10:59:36.262Z,996.42
2018-04-30T11:00:36.262Z,996.55
2018-04-30T11:01:36.260Z,996.53
2018-04-30T11:02:36.293Z,996.79
2018-04-30T11:03:36.267Z,996.82
2018-04-30T11:04:36.261Z,996.89
2018-04-30T11:05:36.260Z,997.40
2018-04-30T11:06:36.254Z,996.87
2018-04-30T11:07:36.254Z,996.88
2018-04-30T11:08:36.254Z,997.14
2018-04-30T11:09:36.254Z,996.78
2018-04-30T11:10:36.252Z,996.96
2018-04-30T11:11:36.245Z,997.66
2018-04-30T11:12:36.252Z,996.72
2018-04-30T11:13:36.258Z,996.44
2018-04-30T11:14:36.240Z,996.67
2018-04-30T11:15:36.242Z,996.65
2018-04-30T11:16:36.235Z,996.60
2018-04-30T11:17:36.234Z,996.82
2018-04-30T11:18:36.231Z,996.65
2018-04-30T11:19:36.235Z,996.69
2018-04-30T11:20:36.226Z,996.64
2018-04-30T11:21:36.222Z,996.74
2018-04-30T11:22:36.219Z,996.70
2018-04-30T11:23:36.218Z,996.76
2018-04-30T11:24:36.213Z,996.82
2018-04-30T11:25:36.208Z,996.66
2018-04-30T11:26:36.207Z,996.89
2018-04-30T11:27:36.279Z,996.75
2018-04-30T11:28:36.197Z,996.82
2018-04-30T11:29:36.194Z,996.77
2018-04-30T11:30:36.192Z,996.80
2018-04-30T11:31:36.184Z,996.86
2018-04-30T11:32:36.183Z,996.91
2018-04-30T11:33:36.181Z,996.85
2018-04-30T11:34:36.173Z,996.86
2018-04-30T11:35:36.170Z,996.86
2018-04-30T11:36:36.165Z,996.91
2018-04-30T11:37:36.159Z,996.93
2018-04-30T11:38:36.154Z,996.97
2018-04-30T11:39:36.154Z,996.91
2018-04-30T11:40:36.145Z,997.04
2018-04-30T11:41:36.139Z,997.07
2018-04-30T11:42:36.135Z,997.11
2018-04-30T11:43:36.138Z,997.15
2018-04-30T11:44:36.125Z,997.41
2018-04-30T11:45:36.123Z,997.21
2018-04-30T11:46:36.118Z,997.10
2018-04-30T11:47:36.112Z,997.08
2018-04-30T11:48:36.105Z,997.26
2018-04-30T11:49:36.099Z,997.12
2018-04-30T11:50:36.092Z,997.21
2018-04-30T11:51:36.087Z,997.13
2018-04-30T11:52:36.094Z,997.17
2018-04-30T11:53:36.078Z,997.15
2018-04-30T11:54:36.074Z,997.12
2018-04-30T11:55:36.072Z,997.09
2018-04-30T11:56:36.063Z,997.05
2018-04-30T11:57:36.055Z,997.06
2018-04-30T11:58:36.134Z,997.08
2018-04-30T11:59:36.043Z,997.14
2018-04-30T12:00:36.038Z,997.05
2018-04-30T12:01:36.033Z,997.17
2018-04-30T12:02:36.034Z,997.30
2018-04-30T12:03:36.022Z,997.30
2018-04-30T12:04:36.014Z,997.29
2018-04-30T12:05:36.009Z,997.26
2018-04-30T12:06:36.003Z,997.27
2018-04-30T12:07:35.995Z,997.27
2018-04-30T12:08:35.991Z,997.22
2018-04-30T12:09:35.983Z,997.19
2018-04-30T12:10:35.979Z,997.14
2018-04-30T12:11:35.975Z,997.36
2018-04-30T12:12:35.963Z,997.67
2018-04-30T12:13:35.960Z,997.35
2018-04-30T12:14:35.955Z,997.25
2018-04-30T12:15:35.947Z,997.29
2018-04-30T12:16:36.012Z,997.27
2018-04-30T12:17:35.934Z,997.32
2018-04-30T12:18:35.928Z,997.38
2018-04-30T12:19:35.924Z,997.24
2018-04-30T12:20:35.917Z,997.32
2018-04-30T12:21:35.909Z,997.46
2018-04-30T12:22:35.902Z,997.41
2018-04-30T12:23:35.897Z,997.32
2018-04-30T12:24:35.891Z,997.29
2018-04-30T12:25:35.885Z,997.25
2018-04-30T12:26:35.876Z,997.22
2018-04-30T12:27:35.870Z,997.25
2018-04-30T12:28:35.870Z,997.32
2018-04-30T12:29:35.857Z,997.38
2018-04-30T12:30:35.847Z,997.36
2018-04-30T12:31:35.847Z,997.39
2018-04-30T12:32:35.837Z,997.43
2018-04-30T12:33:35.838Z,997.60
2018-04-30T12:34:35.825Z,997.44
2018-04-30T12:35:35.814Z,997.48
2018-04-30T12:36:35.807Z,997.53
2018-04-30T12:37:35.808Z,997.34
2018-04-30T12:38:35.792Z,997.33
2018-04-30T12:39:35.785Z,997.42
2018-04-30T12:40:35.777Z,997.43
2018-04-30T12:41:35.769Z,997.43
2018-04-30T12:42:35.763Z,997.47
2018-04-30T12:43:35.763Z,997.54
2018-04-30T12:44:35.747Z,997.56
2018-04-30T12:45:35.737Z,997.83
2018-04-30T12:46:35.729Z,997.77
2018-04-30T12:47:35.723Z,997.83
2018-04-30T12:48:35.716Z,998.33
2018-04-30T12:49:35.721Z,998.61
2018-04-30T12:50:35.698Z,998.50
2018-04-30T12:51:35.701Z,998.23
2018-04-30T12:52:35.684Z,997.95
2018-04-30T12:53:35.678Z,997.95
2018-04-30T12:54:35.671Z,998.02
2018-04-30T12:55:35.663Z,998.28
2018-04-30T12:56:35.673Z,998.25
2018-04-30T12:57:35.648Z,997.96
2018-04-30T12:58:35.645Z,998.19
2018-04-30T12:59:35.636Z,998.21
2018-04-30T13:00:35.632Z,997.99
2018-04-30T13:01:35.631Z,998.00
2018-04-30T13:02:35.685Z,997.90
2018-04-30T13:03:35.612Z,997.90
2018-04-30T13:04:35.610Z,998.10
2018-04-30T13:05:35.601Z,997.98
2018-04-30T13:06:35.593Z,998.09
2018-04-30T13:07:35.584Z,998.06
2018-04-30T13:08:35.581Z,998.13
2018-04-30T13:09:35.575Z,998.28
2018-04-30T13:10:35.572Z,998.52
2018-04-30T13:11:35.565Z,998.32
2018-04-30T13:12:35.558Z,998.43
2018-04-30T13:13:35.551Z,998.27
2018-04-30T13:14:35.548Z,998.54
2018-04-30T13:15:35.541Z,998.48
2018-04-30T13:16:35.533Z,998.37
2018-04-30T13:17:35.530Z,998.35
2018-04-30T13:18:35.527Z,998.35
2018-04-30T13:19:35.523Z,998.31
2018-04-30T13:20:35.514Z,998.32
2018-04-30T13:21:35.509Z,998.16
2018-04-30T13:22:35.501Z,998.19
2018-04-30T13:23:35.493Z,998.47
2018-04-30T13:24:35.488Z,998.57
2018-04-30T13:25:35.480Z,998.46
2018-04-30T13:26:35.479Z,998.31
2018-04-30T13:27:35.469Z,998.28
2018-04-30T13:28:35.514Z,998.26
2018-04-30T13:29:35.459Z,998.12
2018-04-30T13:30:35.454Z,998.21
2018-04-30T13:31:35.451Z,998.06
2018-04-30T13:32:35.444Z,998.04
2018-04-30T13:33:35.438Z,998.03
2018-04-30T13:34:35.429Z,998.17
2018-04-30T13:35:35.418Z,998.12
2018-04-30T13:36:35.414Z,998.11
2018-04-30T13:37:35.404Z,998.05
2018-04-30T13:38:35.398Z,998.20
2018-04-30T13:39:35.387Z,997.99
2018-04-30T13:40:35.383Z,998.27
2018-04-30T13:41:35.376Z,998.17
2018-04-30T13:42:35.364Z,998.13
2018-04-30T13:43:35.407Z,998.32
2018-04-30T13:44:35.347Z,998.16
2018-04-30T13:45:35.339Z,998.12
2018-04-30T13:46:35.329Z,998.17
2018-04-30T13:47:35.323Z,998.09
2018-04-30T13:48:35.317Z,998.04
2018-04-30T13:49:35.308Z,997.93
2018-04-30T13:50:35.303Z,997.90
2018-04-30T13:51:35.286Z,997.88
2018-04-30T13:52:35.284Z,997.87
2018-04-30T13:53:35.267Z,998.06
2018-04-30T13:54:35.325Z,997.98
2018-04-30T13:55:35.250Z,998.04
2018-04-30T13:56:35.236Z,998.05
2018-04-30T13:57:35.230Z,998.05
2018-04-30T13:58:35.234Z,998.05
2018-04-30T13:59:35.213Z,998.02
2018-04-30T14:00:35.201Z,998.01
2018-04-30T14:01:35.188Z,998.04
2018-04-30T14:02:35.178Z,998.02
2018-04-30T14:03:35.169Z,998.01
2018-04-30T14:04:35.159Z,998.00
2018-04-30T14:05:35.151Z,998.03
2018-04-30T14:06:35.142Z,998.06
2018-04-30T14:07:35.124Z,998.10
2018-04-30T14:08:35.115Z,998.18
2018-04-30T14:09:35.108Z,998.10
2018-04-30T14:10:35.093Z,998.06
2018-04-30T14:11:35.092Z,998.04
2018-04-30T14:12:35.074Z,998.04
2018-04-30T14:13:35.067Z,998.10
2018-04-30T14:14:35.056Z,998.12
2018-04-30T14:15:35.048Z,998.13
2018-04-30T14:16:35.038Z,998.04
2018-04-30T14:17:35.033Z,998.03
2018-04-30T14:18:35.014Z,998.08
2018-04-30T14:19:35.004Z,998.08
2018-04-30T14:20:34.998Z,998.02
2018-04-30T14:21:35.014Z,997.98
2018-04-30T14:22:34.977Z,997.92
2018-04-30T14:23:34.968Z,997.99
2018-04-30T14:24:34.956Z,997.92
2018-04-30T14:25:34.941Z,997.82
2018-04-30T14:26:34.929Z,998.25
2018-04-30T14:27:34.923Z,998.02
2018-04-30T14:28:34.919Z,998.03
2018-04-30T14:29:34.896Z,998.11
2018-04-30T14:30:34.887Z,998.07
2018-04-30T14:31:34.898Z,998.01
2018-04-30T14:32:34.869Z,998.11
2018-04-30T14:33:34.855Z,998.32
2018-04-30T14:34:34.845Z,998.28
2018-04-30T14:35:34.833Z,998.31
2018-04-30T14:36:34.824Z,998.33
2018-04-30T14:37:34.823Z,998.56
2018-04-30T14:38:34.800Z,998.38
2018-04-30T14:39:34.789Z,998.33
2018-04-30T14:40:34.781Z,998.33
2018-04-30T14:41:34.768Z,998.38
2018-04-30T14:42:34.759Z,998.55
2018-04-30T14:43:34.752Z,998.33
2018-04-30T14:44:34.746Z,998.32
2018-04-30T14:45:34.725Z,998.55
2018-04-30T14:46:34.716Z,998.51
2018-04-30T14:47:34.704Z,998.53
2018-04-30T14:48:34.695Z,998.48
2018-04-30T14:49:34.686Z,998.30
2018-04-30T14:50:34.678Z,998.63
2018-04-30T14:51:34.663Z,998.66
2018-04-30T14:52:34.656Z,998.55
2018-04-30T14:53:34.640Z,998.61
2018-04-30T14:54:34.633Z,998.65
2018-04-30T14:55:34.621Z,998.61
2018-04-30T14:56:34.608Z,998.47
2018-04-30T14:57:34.599Z,998.56
2018-04-30T14:58:34.591Z,998.86
2018-04-30T14:59:34.578Z,998.53
2018-04-30T15:00:34.567Z,998.40
2018-04-30T15:01:34.555Z,998.42
2018-04-30T15:02:34.549Z,998.32
2018-04-30T15:03:34.535Z,998.67
2018-04-30T15:04:34.523Z,998.59
2018-04-30T15:05:34.521Z,998.79
2018-04-30T15:06:34.505Z,998.69
2018-04-30T15:07:34.492Z,998.73
2018-04-30T15:08:34.482Z,998.74
2018-04-30T15:09:34.477Z,998.75
2018-04-30T15:10:34.460Z,998.70
2018-04-30T15:11:34.452Z,998.79
2018-04-30T15:12:34.440Z,998.81
2018-04-30T15:13:34.431Z,998.84
2018-04-30T15:14:34.416Z,998.90
2018-04-30T15:15:34.419Z,998.92
2018-04-30T15:16:34.401Z,998.83
2018-04-30T15:17:34.387Z,998.85
2018-04-30T15:18:34.375Z,998.97
2018-04-30T15:19:34.451Z,998.94
2018-04-30T15:20:34.358Z,998.99
2018-04-30T15:21:34.343Z,998.85
2018-04-30T15:22:34.358Z,998.94
2018-04-30T15:23:34.323Z,998.80
2018-04-30T15:24:34.315Z,998.83
2018-04-30T15:25:34.299Z,998.98
2018-04-30T15:26:34.297Z,998.87
2018-04-30T15:27:34.280Z,998.89
2018-04-30T15:28:34.269Z,998.91
2018-04-30T15:29:34.263Z,998.85
2018-04-30T15:30:34.255Z,998.85
2018-04-30T15:31:34.238Z,998.95
2018-04-30T15:32:34.228Z,998.95
2018-04-30T15:33:34.217Z,998.90
2018-04-30T15:34:34.206Z,999.06
2018-04-30T15:35:34.207Z,998.90
2018-04-30T15:36:34.188Z,998.92
2018-04-30T15:37:34.171Z,998.92
2018-04-30T15:38:34.164Z,998.92
2018-04-30T15:39:34.152Z,998.88
2018-04-30T15:40:34.139Z,998.91
2018-04-30T15:41:34.133Z,998.95
2018-04-30T15:42:34.119Z,998.93
2018-04-30T15:43:34.111Z,998.93
2018-04-30T15:44:34.096Z,998.85
2018-04-30T15:45:34.092Z,998.88
2018-04-30T15:46:34.088Z,998.85
2018-04-30T15:47:34.079Z,998.85
2018-04-30T15:48:34.053Z,998.87
2018-04-30T15:49:34.043Z,998.95
2018-04-30T15:50:34.034Z,999.01
2018-04-30T15:51:34.023Z,998.90
2018-04-30T15:52:34.017Z,998.86
2018-04-30T15:53:33.999Z,998.85
2018-04-30T15:54:34.027Z,998.90
2018-04-30T15:55:33.977Z,998.86
2018-04-30T15:56:33.971Z,998.97
2018-04-30T15:57:33.956Z,999.05
2018-04-30T15:58:33.953Z,998.88
2018-04-30T15:59:33.937Z,999.00
2018-04-30T16:00:33.923Z,998.89
2018-04-30T16:01:33.912Z,998.83
2018-04-30T16:02:33.901Z,998.90
2018-04-30T16:03:33.890Z,998.97
2018-04-30T16:04:33.956Z,998.91
2018-04-30T16:05:33.876Z,998.96
2018-04-30T16:06:33.858Z,999.00
2018-04-30T16:07:33.847Z,999.09
2018-04-30T16:08:33.835Z,999.09
2018-04-30T16:09:33.823Z,999.13
2018-04-30T16:10:33.817Z,999.22
2018-04-30T16:11:33.801Z,999.10
2018-04-30T16:12:33.793Z,999.07
2018-04-30T16:13:33.781Z,999.09
2018-04-30T16:14:33.767Z,999.20
2018-04-30T16:15:33.757Z,999.13
2018-04-30T16:16:33.747Z,999.22
2018-04-30T16:17:33.734Z,999.08
2018-04-30T16:18:33.724Z,999.21
2018-04-30T16:19:33.710Z,999.38
2018-04-30T16:20:33.699Z,999.36
2018-04-30T16:21:33.692Z,999.28
2018-04-30T16:22:33.679Z,999.30
2018-04-30T16:23:33.666Z,999.29
2018-04-30T16:24:33.655Z,999.25
2018-04-30T16:25:33.647Z,999.37
2018-04-30T16:26:33.631Z,999.21
2018-04-30T16:27:33.621Z,999.30
2018-04-30T16:28:33.609Z,999.25
2018-04-30T16:29:33.598Z,999.32
2018-04-30T16:30:33.591Z,999.28
2018-04-30T16:31:33.576Z,999.25
2018-04-30T16:32:33.564Z,999.32
2018-04-30T16:33:33.555Z,999.37
2018-04-30T16:34:33.549Z,999.34
2018-04-30T16:35:33.532Z,999.38
2018-04-30T16:36:33.517Z,999.29
2018-04-30T16:37:33.508Z,999.38
2018-04-30T16:38:33.504Z,999.39
2018-04-30T16:39:33.506Z,999.35
2018-04-30T16:40:33.477Z,999.40
2018-04-30T16:41:33.460Z,999.55
2018-04-30T16:42:33.451Z,999.63
2018-04-30T16:43:33.442Z,999.47
2018-04-30T16:44:33.428Z,999.43
2018-04-30T16:45:33.412Z,999.45
2018-04-30T16:46:33.403Z,999.46
2018-04-30T16:47:33.392Z,999.49
2018-04-30T16:48:33.381Z,999.53
2018-04-30T16:49:33.369Z,999.44
2018-04-30T16:50:33.358Z,999.43
2018-04-30T16:51:33.346Z,999.50
2018-04-30T16:52:33.334Z,999.39
2018-04-30T16:53:33.326Z,999.43
2018-04-30T16:54:33.314Z,999.47
2018-04-30T16:55:33.303Z,999.50
2018-04-30T16:56:33.290Z,999.53
2018-04-30T16:57:33.276Z,999.50
2018-04-30T16:58:33.334Z,999.48
2018-04-30T16:59:33.269Z,999.47
2018-04-30T17:00:33.241Z,999.49
2018-04-30T17:01:33.227Z,999.50
2018-04-30T17:02:33.219Z,999.47
2018-04-30T17:03:33.205Z,999.55
2018-04-30T17:04:33.196Z,999.59
2018-04-30T17:05:33.187Z,999.53
2018-04-30T17:06:33.171Z,999.60
2018-04-30T17:07:33.162Z,999.62
2018-04-30T17:08:33.147Z,999.56
2018-04-30T17:09:33.133Z,999.62
2018-04-30T17:10:33.196Z,999.62
2018-04-30T17:11:33.118Z,999.61
2018-04-30T17:12:33.101Z,999.64
2018-04-30T17:13:33.088Z,999.60
2018-04-30T17:14:33.078Z,999.61
2018-04-30T17:15:33.068Z,999.67
2018-04-30T17:16:33.052Z,999.71
2018-04-30T17:17:33.051Z,999.67
2018-04-30T17:18:33.033Z,999.75
2018-04-30T17:19:33.021Z,999.68
2018-04-30T17:20:33.007Z,999.70
2018-04-30T17:21:32.995Z,999.67
2018-04-30T17:22:32.985Z,999.71
2018-04-30T17:23:32.972Z,999.76
2018-04-30T17:24:32.957Z,999.76
2018-04-30T17:25:32.947Z,999.65
2018-04-30T17:26:32.934Z,999.67
2018-04-30T17:27:32.922Z,999.74
2018-04-30T17:28:32.914Z,999.74
2018-04-30T17:29:32.905Z,999.75
2018-04-30T17:30:32.990Z,999.71
2018-04-30T17:31:32.877Z,999.76
2018-04-30T17:32:32.863Z,999.78
2018-04-30T17:33:32.851Z,999.83
2018-04-30T17:34:32.841Z,999.81
2018-04-30T17:35:32.827Z,999.86
2018-04-30T17:36:32.840Z,999.84
2018-04-30T17:37:32.800Z,999.89
2018-04-30T17:38:32.790Z,999.88
2018-04-30T17:39:32.782Z,999.87
2018-04-30T17:40:32.768Z,999.90
2018-04-30T17:41:32.755Z,999.87
2018-04-30T17:42:32.740Z,999.95
2018-04-30T17:43:32.733Z,999.88
2018-04-30T17:44:32.716Z,999.96
2018-04-30T17:45:32.704Z,999.97
2018-04-30T17:46:32.695Z,999.91
2018-04-30T17:47:32.678Z,999.92
2018-04-30T17:48:32.666Z,999.93
2018-04-30T17:49:32.663Z,999.98
2018-04-30T17:50:32.648Z,1000.10
2018-04-30T17:51:32.629Z,1000.03
2018-04-30T17:52:32.618Z,1000.00
2018-04-30T17:53:32.605Z,1000.05
2018-04-30T17:54:32.593Z,1000.00
2018-04-30T17:55:32.587Z,1000.10
2018-04-30T17:56:32.570Z,1000.05
2018-04-30T17:57:32.557Z,1000.08
2018-04-30T17:58:32.543Z,1000.08
2018-04-30T17:59:32.539Z,1000.11
2018-04-30T18:00:32.522Z,1000.11
2018-04-30T18:01:32.508Z,1000.07
2018-04-30T18:02:32.496Z,1000.13
2018-04-30T18:03:32.483Z,1000.06
2018-04-30T18:04:32.471Z,1000.07
2018-04-30T18:05:32.459Z,1000.07
2018-04-30T18:06:32.450Z,1000.06
2018-04-30T18:07:32.432Z,1000.08
2018-04-30T18:08:32.428Z,1000.10
2018-04-30T18:09:32.409Z,1000.08
2018-04-30T18:10:32.397Z,1000.12
2018-04-30T18:11:32.393Z,1000.07
2018-04-30T18:12:32.374Z,1000.12
2018-04-30T18:13:32.361Z,1000.16
2018-04-30T18:14:32.348Z,1000.14
2018-04-30T18:15:32.337Z,1000.16
2018-04-30T18:16:32.324Z,1000.16
2018-04-30T18:17:32.310Z,1000.18
2018-04-30T18:18:32.296Z,1000.21
2018-04-30T18:19:32.285Z,1000.24
2018-04-30T18:20:32.272Z,1000.26
2018-04-30T18:21:32.259Z,1000.28
2018-04-30T18:22:32.248Z,1000.21
2018-04-30T18:23:32.235Z,1000.26
2018-04-30T18:24:32.222Z,1000.22
2018-04-30T18:25:32.208Z,1000.21
2018-04-30T18:26:32.250Z,1000.20
2018-04-30T18:27:32.185Z,1000.20
2018-04-30T18:28:32.177Z,1000.17
2018-04-30T18:29:32.167Z,1000.14
2018-04-30T18:30:32.147Z,1000.15
2018-04-30T18:31:32.132Z,1000.09
2018-04-30T18:32:32.120Z,1000.09
2018-04-30T18:33:32.107Z,1000.03
2018-04-30T18:34:32.101Z,999.97
2018-04-30T18:35:32.088Z,999.97
2018-04-30T18:36:32.082Z,999.98
2018-04-30T18:37:32.059Z,999.95
2018-04-30T18:38:32.045Z,1000.03
2018-04-30T18:39:32.038Z,1000.06
2018-04-30T18:40:32.023Z,1000.10
2018-04-30T18:41:32.013Z,1000.10
2018-04-30T18:42:31.995Z,1000.13
2018-04-30T18:43:31.982Z,1000.13
2018-04-30T18:44:31.979Z,1000.23
2018-04-30T18:45:31.955Z,1000.26
2018-04-30T18:46:31.943Z,1000.30
2018-04-30T18:47:31.929Z,1000.33
2018-04-30T18:48:31.921Z,1000.36
2018-04-30T18:49:31.905Z,1000.37
2018-04-30T18:50:31.893Z,1000.38
2018-04-30T18:51:31.880Z,1000.41
2018-04-30T18:52:31.867Z,1000.37
2018-04-30T18:53:31.855Z,1000.40
2018-04-30T18:54:31.840Z,1000.39
2018-04-30T18:55:31.840Z,1000.40
2018-04-30T18:56:31.815Z,1000.37
2018-04-30T18:57:31.801Z,1000.37
2018-04-30T18:58:31.788Z,1000.41
2018-04-30T18:59:31.775Z,1000.43
2018-04-30T19:00:31.761Z,1000.42
2018-04-30T19:01:31.768Z,1000.46
2018-04-30T19:02:31.781Z,1000.48
2018-04-30T19:03:31.723Z,1000.52
2018-04-30T19:04:31.716Z,1000.49
2018-04-30T19:05:31.698Z,1000.52
2018-04-30T19:06:31.685Z,1000.55
2018-04-30T19:07:31.673Z,1000.54
2018-04-30T19:08:31.653Z,1000.62
2018-04-30T19:09:31.646Z,1000.62
2018-04-30T19:10:31.635Z,1000.66
2018-04-30T19:11:31.617Z,1000.69
2018-04-30T19:12:31.602Z,1000.70
2018-04-30T19:13:31.591Z,1000.71
2018-04-30T19:14:31.597Z,1000.71
2018-04-30T19:15:31.563Z,1000.65
2018-04-30T19:16:31.548Z,1000.66
2018-04-30T19:17:31.535Z,1000.65
2018-04-30T19:18:31.528Z,1000.66
2018-04-30T19:19:31.507Z,1000.63
2018-04-30T19:20:31.500Z,1000.62
2018-04-30T19:21:31.478Z,1000.64
2018-04-30T19:22:31.474Z,1000.70
2018-04-30T19:23:31.452Z,1000.68
2018-04-30T19:24:31.439Z,1000.70
2018-04-30T19:25:31.431Z,1000.68
2018-04-30T19:26:31.415Z,1000.66
2018-04-30T19:27:31.396Z,1000.68
2018-04-30T19:28:31.382Z,1000.64
2018-04-30T19:29:31.371Z,1000.69
2018-04-30T19:30:31.356Z,1000.68
2018-04-30T19:31:31.346Z,1000.73
2018-04-30T19:32:31.328Z,1000.71
2018-04-30T19:33:31.318Z,1000.71
2018-04-30T19:34:31.306Z,1000.73
2018-04-30T19:35:31.285Z,1000.75
2018-04-30T19:36:31.275Z,1000.76
2018-04-30T19:37:31.257Z,1000.78
2018-04-30T19:38:31.243Z,1000.77
2018-04-30T19:39:31.228Z,1000.77
2018-04-30T19:40:31.220Z,1000.77
2018-04-30T19:41:31.202Z,1000.76
2018-04-30T19:42:31.191Z,1000.72
2018-04-30T19:43:31.169Z,1000.70
2018-04-30T19:44:31.158Z,1000.71
2018-04-30T19:45:31.168Z,1000.69
2018-04-30T19:46:31.128Z,1000.69
2018-04-30T19:47:31.113Z,1000.69
2018-04-30T19:48:31.106Z,1000.66
2018-04-30T19:49:31.085Z,1000.68
2018-04-30T19:50:31.071Z,1000.72
2018-04-30T19:51:31.060Z,1000.71
2018-04-30T19:52:31.107Z,1000.72
2018-04-30T19:53:31.029Z,1000.75
2018-04-30T19:54:31.017Z,1000.79
2018-04-30T19:55:30.996Z,1000.80
2018-04-30T19:56:30.982Z,1000.81
2018-04-30T19:57:30.966Z,1000.79
2018-04-30T19:58:30.951Z,1000.79
2018-04-30T19:59:30.944Z,1000.80
2018-04-30T20:00:30.924Z,1000.79
2018-04-30T20:01:30.905Z,1000.87
2018-04-30T20:02:30.892Z,1000.80
2018-04-30T20:03:30.881Z,1000.78
2018-04-30T20:04:30.864Z,1000.80
2018-04-30T20:05:30.844Z,1000.81
2018-04-30T20:06:30.832Z,1000.80
2018-04-30T20:07:30.828Z,1000.84
2018-04-30T20:08:30.807Z,1000.81
2018-04-30T20:09:30.789Z,1000.80
2018-04-30T20:10:30.772Z,1000.76
2018-04-30T20:11:30.764Z,1000.73
2018-04-30T20:12:30.743Z,1000.72
2018-04-30T20:13:30.751Z,1000.77
2018-04-30T20:14:30.762Z,1000.76
2018-04-30T20:15:30.702Z,1000.81
2018-04-30T20:16:30.685Z,1000.86
2018-04-30T20:17:30.666Z,1000.87
2018-04-30T20:18:30.662Z,1000.91
2018-04-30T20:19:30.638Z,1000.85
2018-04-30T20:20:30.705Z,1000.91
2018-04-30T20:21:30.609Z,1000.89
2018-04-30T20:22:30.590Z,1000.93
2018-04-30T20:23:30.578Z,1000.97
2018-04-30T20:24:30.564Z,1000.90
2018-04-30T20:25:30.546Z,1000.95
2018-04-30T20:26:30.532Z,1000.89
2018-04-30T20:27:30.517Z,1000.90
2018-04-30T20:28:30.501Z,1000.86
2018-04-30T20:29:30.485Z,1000.91
2018-04-30T20:30:30.471Z,1000.95
2018-04-30T20:31:30.458Z,1000.98
2018-04-30T20:32:30.439Z,1000.96
2018-04-30T20:33:30.421Z,1000.91
2018-04-30T20:34:30.404Z,1000.97
2018-04-30T20:35:30.393Z,1001.07
2018-04-30T20:36:30.377Z,1001.08
2018-04-30T20:37:30.361Z,1001.12
2018-04-30T20:38:30.350Z,1001.16
2018-04-30T20:39:30.341Z,1001.19
2018-04-30T20:40:30.313Z,1001.16
2018-04-30T20:41:30.293Z,1001.17
2018-04-30T20:42:30.279Z,1001.19
2018-04-30T20:43:30.283Z,1001.20
2018-04-30T20:44:30.343Z,1001.21
2018-04-30T20:45:30.236Z,1001.23
2018-04-30T20:46:30.214Z,1001.28
2018-04-30T20:47:30.205Z,1001.26
2018-04-30T20:48:30.186Z,1001.25
2018-04-30T20:49:30.167Z,1001.26
2018-04-30T20:50:30.239Z,1001.24
2018-04-30T20:51:30.138Z,1001.24
2018-04-30T20:52:30.120Z,1001.24
2018-04-30T20:53:30.104Z,1001.26
2018-04-30T20:54:30.089Z,1001.23
2018-04-30T20:55:30.076Z,1001.26
2018-04-30T20:56:30.062Z,1001.23
2018-04-30T20:57:30.042Z,1001.22
2018-04-30T20:58:30.027Z,1001.23
2018-04-30T20:59:30.011Z,1001.24
2018-04-30T21:00:29.995Z,1001.23
2018-04-30T21:01:29.980Z,1001.23
2018-04-30T21:02:29.969Z,1001.22
2018-04-30T21:03:29.947Z,1001.25
2018-04-30T21:04:29.929Z,1001.23
2018-04-30T21:05:29.915Z,1001.21
2018-04-30T21:06:29.910Z,1001.26
2018-04-30T21:07:29.882Z,1001.27
2018-04-30T21:08:29.868Z,1001.29
2018-04-30T21:09:29.903Z,1001.28
2018-04-30T21:10:29.836Z,1001.27
2018-04-30T21:11:29.821Z,1001.22
2018-04-30T21:12:29.805Z,1001.27
2018-04-30T21:13:29.789Z,1001.27
2018-04-30T21:14:29.779Z,1001.32
2018-04-30T21:15:29.757Z,1001.34
2018-04-30T21:16:29.740Z,1001.35
2018-04-30T21:17:29.809Z,1001.33
2018-04-30T21:18:29.707Z,1001.30
2018-04-30T21:19:29.691Z,1001.32
2018-04-30T21:20:29.677Z,1001.30
2018-04-30T21:21:29.659Z,1001.30
2018-04-30T21:22:29.643Z,1001.35
2018-04-30T21:23:29.632Z,1001.31
2018-04-30T21:24:29.696Z,1001.37
2018-04-30T21:25:29.599Z,1001.39
2018-04-30T21:26:29.583Z,1001.37
2018-04-30T21:27:29.568Z,1001.32
2018-04-30T21:28:29.549Z,1001.32
2018-04-30T21:29:29.542Z,1001.34
2018-04-30T21:30:29.514Z,1001.34
2018-04-30T21:31:29.502Z,1001.34
2018-04-30T21:32:29.485Z,1001.33
2018-04-30T21:33:29.470Z,1001.32
2018-04-30T21:34:29.547Z,1001.36
2018-04-30T21:35:29.435Z,1001.36
2018-04-30T21:36:29.421Z,1001.34
2018-04-30T21:37:29.402Z,1001.38